createdAt,value
2019-06-26T00:02:38.774Z,24.00
2019-06-26T00:05:42.537Z,23.90
2019-06-26T00:08:46.403Z,23.90
2019-06-26T00:11:50.129Z,23.90
2019-06-26T00:14:53.946Z,23.90
2019-06-26T00:17:57.675Z,23.90
2019-06-26T00:21:01.370Z,23.90
2019-06-26T00:24:05.226Z,23.90
2019-06-26T00:27:09.069Z,23.80
2019-06-26T00:30:13.414Z,23.90
2019-06-26T00:33:17.113Z,23.80
2019-06-26T00:36:20.829Z,23.80
2019-06-26T00:39:24.585Z,23.80
2019-06-26T00:42:28.462Z,23.80
2019-06-26T00:45:32.122Z,23.90
2019-06-26T00:48:35.854Z,23.80
2019-06-26T00:51:39.662Z,23.80
2019-06-26T00:54:43.402Z,23.70
2019-06-26T00:57:47.169Z,23.70
2019-06-26T01:00:52.150Z,23.70
2019-06-26T01:03:58.601Z,23.70
2019-06-26T01:07:02.248Z,23.70
2019-06-26T01:10:06.401Z,23.70
2019-06-26T01:13:10.386Z,23.60
2019-06-26T01:16:14.197Z,23.60
2019-06-26T01:19:17.953Z,23.60
2019-06-26T01:22:21.669Z,23.60
2019-06-26T01:25:25.441Z,23.50
2019-06-26T01:28:29.308Z,23.50
2019-06-26T01:31:32.977Z,23.50
2019-06-26T01:34:36.717Z,23.50
2019-06-26T01:37:40.482Z,23.50
2019-06-26T01:40:44.992Z,23.40
2019-06-26T01:43:48.749Z,23.40
2019-06-26T01:46:52.718Z,23.40
2019-06-26T01:49:56.522Z,23.40
2019-06-26T01:53:00.296Z,23.40
2019-06-26T01:56:04.261Z,23.30
2019-06-26T01:59:08.052Z,23.30
2019-06-26T02:02:11.913Z,23.30
2019-06-26T02:05:15.707Z,23.20
2019-06-26T02:08:19.478Z,23.20
2019-06-26T02:11:23.257Z,23.20
2019-06-26T02:14:31.439Z,23.20
2019-06-26T02:17:32.454Z,23.20
2019-06-26T02:20:36.229Z,23.10
2019-06-26T02:23:39.901Z,23.10
2019-06-26T02:26:43.758Z,23.00
2019-06-26T02:29:47.413Z,23.00
2019-06-26T02:32:51.194Z,23.00
2019-06-26T02:35:54.964Z,23.00
2019-06-26T02:38:58.693Z,23.00
2019-06-26T02:42:02.491Z,23.00
2019-06-26T02:45:07.810Z,22.90
2019-06-26T02:48:11.580Z,22.90
2019-06-26T02:51:15.523Z,22.90
2019-06-26T02:54:19.269Z,22.90
2019-06-26T02:57:22.981Z,22.90
2019-06-26T03:00:27.713Z,22.80
2019-06-26T03:03:31.567Z,22.90
2019-06-26T03:06:35.337Z,22.80
2019-06-26T03:09:39.373Z,22.80
2019-06-26T03:12:43.229Z,22.80
2019-06-26T03:15:50.368Z,22.80
2019-06-26T03:18:52.468Z,22.80
2019-06-26T03:21:56.193Z,22.80
2019-06-26T03:24:59.920Z,22.90
2019-06-26T03:28:03.695Z,22.90
2019-06-26T03:31:07.418Z,22.90
2019-06-26T03:34:11.218Z,22.90
2019-06-26T03:37:14.931Z,22.90
2019-06-26T03:40:18.857Z,23.00
2019-06-26T03:43:23.546Z,23.00
2019-06-26T03:46:27.247Z,23.00
2019-06-26T03:49:30.930Z,23.10
2019-06-26T03:52:35.041Z,23.10
2019-06-26T03:55:39.119Z,23.10
2019-06-26T03:58:42.812Z,23.10
2019-06-26T04:01:46.750Z,23.10
2019-06-26T04:04:50.524Z,23.10
2019-06-26T04:07:54.277Z,23.20
2019-06-26T04:10:58.009Z,23.20
2019-06-26T04:14:01.772Z,23.20
2019-06-26T04:17:05.598Z,23.20
2019-06-26T04:20:09.399Z,23.30
2019-06-26T04:23:13.100Z,23.30
2019-06-26T04:26:16.843Z,23.30
2019-06-26T04:29:20.563Z,23.40
2019-06-26T04:32:24.700Z,23.40
2019-06-26T04:35:28.541Z,23.50
2019-06-26T04:38:32.240Z,23.50
2019-06-26T04:41:35.959Z,23.60
2019-06-26T04:44:39.729Z,23.70
2019-06-26T04:47:43.429Z,23.80
2019-06-26T04:50:47.453Z,23.90
2019-06-26T04:53:51.150Z,24.00
2019-06-26T04:56:54.967Z,24.20
2019-06-26T04:59:58.744Z,24.30
2019-06-26T05:03:02.449Z,24.50
2019-06-26T05:06:06.285Z,24.80
2019-06-26T05:09:10.104Z,25.10
2019-06-26T05:12:13.852Z,25.30
2019-06-26T05:15:19.217Z,25.60
2019-06-26T05:18:23.020Z,26.00
2019-06-26T05:21:26.770Z,26.20
2019-06-26T05:24:33.570Z,26.40
2019-06-26T05:27:37.740Z,26.60
2019-06-26T05:30:41.494Z,27.10
2019-06-26T05:33:45.229Z,27.50
2019-06-26T05:36:48.931Z,27.80
2019-06-26T05:39:54.818Z,28.10
2019-06-26T05:42:58.164Z,28.40
2019-06-26T05:46:01.877Z,28.60
2019-06-26T05:49:05.640Z,28.80
2019-06-26T05:52:09.972Z,29.10
2019-06-26T05:55:14.661Z,29.20
2019-06-26T05:58:18.390Z,29.30
2019-06-26T06:01:22.204Z,29.40
2019-06-26T06:04:26.004Z,29.60
2019-06-26T06:07:29.997Z,29.80
2019-06-26T06:10:34.667Z,29.90
2019-06-26T06:13:38.510Z,30.20
2019-06-26T06:16:47.458Z,30.40
2019-06-26T06:19:47.701Z,30.70
2019-06-26T06:22:51.627Z,30.80
2019-06-26T06:25:55.303Z,30.90
2019-06-26T06:28:59.329Z,31.00
2019-06-26T06:32:03.159Z,31.10
2019-06-26T06:35:08.481Z,31.50
2019-06-26T06:38:12.720Z,31.50
2019-06-26T06:41:16.437Z,31.50
2019-06-26T06:44:20.147Z,31.90
2019-06-26T06:47:24.192Z,32.00
2019-06-26T06:50:27.871Z,32.40
2019-06-26T06:53:31.783Z,32.40
2019-06-26T06:56:35.499Z,32.90
2019-06-26T06:59:39.261Z,33.20
2019-06-26T07:02:43.097Z,33.10
2019-06-26T07:05:47.409Z,33.30
2019-06-26T07:08:51.300Z,33.50
2019-06-26T07:11:55.195Z,33.10
2019-06-26T07:14:59.058Z,33.10
2019-06-26T07:18:02.862Z,33.00
2019-06-26T07:21:06.585Z,33.20
2019-06-26T07:24:10.343Z,33.40
2019-06-26T07:27:14.265Z,33.20
2019-06-26T07:30:18.210Z,33.20
2019-06-26T07:33:21.948Z,33.50
2019-06-26T07:36:25.728Z,33.50
2019-06-26T07:39:29.457Z,33.40
2019-06-26T07:42:33.188Z,33.40
2019-06-26T07:45:36.957Z,33.30
2019-06-26T07:48:40.688Z,33.30
2019-06-26T07:51:44.507Z,33.40
2019-06-26T07:54:48.255Z,33.20
2019-06-26T07:57:51.965Z,33.10
2019-06-26T08:00:55.737Z,33.00
2019-06-26T08:03:59.464Z,32.90
2019-06-26T08:07:03.214Z,33.10
2019-06-26T08:10:07.406Z,33.20
2019-06-26T08:13:11.093Z,33.10
2019-06-26T08:16:14.950Z,33.20
2019-06-26T08:19:19.396Z,33.20
2019-06-26T08:22:23.260Z,33.30
2019-06-26T08:25:26.966Z,33.30
2019-06-26T08:28:30.772Z,33.30
2019-06-26T08:31:34.529Z,33.40
2019-06-26T08:34:38.285Z,33.30
2019-06-26T08:37:42.127Z,33.20
2019-06-26T08:40:46.206Z,33.20
2019-06-26T08:43:49.973Z,33.30
2019-06-26T08:46:53.719Z,33.60
2019-06-26T08:49:57.451Z,33.80
2019-06-26T08:53:01.479Z,33.80
2019-06-26T08:56:05.386Z,33.80
2019-06-26T08:59:09.114Z,33.80
2019-06-26T09:02:12.831Z,34.10
2019-06-26T09:05:16.589Z,33.90
2019-06-26T09:08:20.363Z,34.10
2019-06-26T09:11:24.084Z,34.30
2019-06-26T09:14:27.793Z,34.60
2019-06-26T09:17:31.482Z,34.70
2019-06-26T09:20:38.757Z,34.80
2019-06-26T09:23:42.486Z,34.90
2019-06-26T09:26:46.156Z,34.80
2019-06-26T09:29:49.905Z,34.90
2019-06-26T09:32:53.901Z,35.00
2019-06-26T09:35:57.636Z,35.10
2019-06-26T09:39:01.346Z,35.40
2019-06-26T09:42:05.119Z,35.60
2019-06-26T09:45:08.918Z,35.80
2019-06-26T09:48:12.727Z,35.80
2019-06-26T09:51:16.424Z,35.50
2019-06-26T09:54:20.133Z,35.40
2019-06-26T09:57:23.821Z,35.50
2019-06-26T10:00:27.798Z,35.50
2019-06-26T10:03:31.803Z,35.50
2019-06-26T10:06:35.466Z,35.60
2019-06-26T10:09:39.144Z,35.80
2019-06-26T10:12:42.824Z,36.00
2019-06-26T10:15:46.578Z,36.00
2019-06-26T10:18:50.281Z,36.00
2019-06-26T10:21:53.933Z,36.10
2019-06-26T10:24:57.935Z,36.00
2019-06-26T10:28:01.819Z,36.00
2019-06-26T10:31:05.990Z,36.10
2019-06-26T10:34:10.253Z,36.00
2019-06-26T10:37:14.217Z,35.90
2019-06-26T10:40:18.108Z,36.00
2019-06-26T10:43:21.816Z,36.10
2019-06-26T10:46:25.511Z,36.00
2019-06-26T10:49:29.264Z,36.00
2019-06-26T10:52:32.946Z,36.00
2019-06-26T10:55:36.616Z,35.90
2019-06-26T10:58:40.302Z,35.70
2019-06-26T11:01:44.014Z,35.60
2019-06-26T11:04:47.717Z,35.70
2019-06-26T11:07:51.442Z,35.90
2019-06-26T11:10:55.125Z,36.00
2019-06-26T11:13:58.816Z,36.10
2019-06-26T11:17:02.513Z,36.30
2019-06-26T11:20:07.228Z,36.40
2019-06-26T11:23:11.165Z,36.50
2019-06-26T11:26:14.862Z,36.50
2019-06-26T11:29:18.815Z,36.30
2019-06-26T11:32:22.558Z,36.30
2019-06-26T11:35:26.263Z,36.60
2019-06-26T11:38:29.983Z,36.90
2019-06-26T11:41:33.774Z,36.80
2019-06-26T11:44:37.466Z,36.40
2019-06-26T11:47:41.230Z,36.30
2019-06-26T11:50:44.964Z,36.30
2019-06-26T11:53:48.649Z,36.30
2019-06-26T11:56:53.372Z,36.40
2019-06-26T11:59:57.338Z,36.60
2019-06-26T12:03:01.132Z,36.80
2019-06-26T12:06:17.942Z,36.80
2019-06-26T12:09:10.639Z,36.90
2019-06-26T12:12:14.305Z,37.00
2019-06-26T12:15:20.280Z,36.90
2019-06-26T12:18:23.957Z,36.70
2019-06-26T12:21:27.730Z,36.70
2019-06-26T12:24:31.437Z,36.50
2019-06-26T12:27:35.286Z,36.50
2019-06-26T12:30:38.982Z,36.60
2019-06-26T12:33:42.896Z,36.70
2019-06-26T12:36:46.597Z,36.80
2019-06-26T12:39:50.291Z,36.70
2019-06-26T12:42:55.681Z,36.40
2019-06-26T12:45:59.653Z,36.30
2019-06-26T12:49:03.348Z,36.20
2019-06-26T12:52:07.118Z,36.30
2019-06-26T12:55:11.382Z,36.30
2019-06-26T12:58:19.632Z,36.30
2019-06-26T13:01:20.734Z,36.20
2019-06-26T13:04:24.449Z,36.20
2019-06-26T13:07:28.205Z,36.30
2019-06-26T13:10:45.019Z,36.20
2019-06-26T13:13:37.333Z,36.00
2019-06-26T13:16:41.014Z,36.20
2019-06-26T13:19:44.731Z,36.40
2019-06-26T13:22:48.405Z,36.50
2019-06-26T13:25:52.126Z,36.60
2019-06-26T13:28:55.825Z,36.50
2019-06-26T13:31:59.518Z,36.50
2019-06-26T13:35:03.414Z,36.50
2019-06-26T13:38:07.173Z,36.60
2019-06-26T13:41:10.875Z,36.70
2019-06-26T13:44:14.621Z,36.70
2019-06-26T13:47:18.392Z,36.60
2019-06-26T13:50:22.273Z,36.60
2019-06-26T13:53:25.996Z,36.60
2019-06-26T13:56:29.703Z,36.50
2019-06-26T13:59:33.605Z,36.40
2019-06-26T14:02:37.277Z,36.40
2019-06-26T14:05:41.051Z,36.60
2019-06-26T14:08:44.767Z,36.60
2019-06-26T14:11:48.558Z,36.60
2019-06-26T14:14:57.200Z,36.80
2019-06-26T14:17:57.639Z,36.90
2019-06-26T14:21:01.402Z,37.00
2019-06-26T14:24:05.748Z,37.00
2019-06-26T14:27:09.956Z,36.80
2019-06-26T14:30:14.353Z,36.90
2019-06-26T14:33:18.215Z,37.10
2019-06-26T14:36:23.489Z,37.20
2019-06-26T14:39:27.565Z,37.20
2019-06-26T14:42:31.270Z,37.10
2019-06-26T14:45:35.204Z,37.00
2019-06-26T14:48:39.291Z,37.00
2019-06-26T14:51:47.457Z,36.80
2019-06-26T14:54:48.527Z,36.70
2019-06-26T14:57:52.481Z,36.60
2019-06-26T15:00:56.389Z,36.70
2019-06-26T15:04:00.185Z,36.70
2019-06-26T15:07:04.102Z,36.70
2019-06-26T15:10:08.466Z,36.60
2019-06-26T15:13:12.199Z,36.50
2019-06-26T15:16:15.880Z,36.40
2019-06-26T15:19:19.721Z,36.50
2019-06-26T15:22:23.505Z,36.50
2019-06-26T15:25:27.273Z,36.40
2019-06-26T15:28:31.058Z,36.40
2019-06-26T15:31:34.874Z,36.30
2019-06-26T15:34:38.593Z,36.20
2019-06-26T15:37:45.101Z,36.10
2019-06-26T15:40:48.797Z,36.10
2019-06-26T15:43:52.515Z,36.20
2019-06-26T15:46:56.185Z,36.20
2019-06-26T15:49:59.927Z,36.10
2019-06-26T15:53:03.718Z,36.10
2019-06-26T15:56:07.475Z,36.00
2019-06-26T15:59:11.289Z,35.90
2019-06-26T16:02:14.978Z,35.80
2019-06-26T16:05:18.805Z,35.80
2019-06-26T16:08:22.611Z,35.60
2019-06-26T16:11:26.420Z,35.50
2019-06-26T16:14:30.198Z,35.50
2019-06-26T16:17:53.126Z,35.50
2019-06-26T16:20:57.102Z,35.40
2019-06-26T16:24:00.872Z,35.40
2019-06-26T16:27:05.746Z,35.20
2019-06-26T16:30:09.584Z,35.20
2019-06-26T16:33:13.597Z,35.00
2019-06-26T16:36:17.329Z,34.90
2019-06-26T16:39:22.657Z,34.80
2019-06-26T16:42:26.310Z,34.70
2019-06-26T16:45:30.070Z,34.60
2019-06-26T16:48:33.755Z,34.50
2019-06-26T16:51:37.561Z,34.40
2019-06-26T16:54:41.306Z,34.40
2019-06-26T16:57:45.039Z,34.20
2019-06-26T17:00:48.747Z,34.20
2019-06-26T17:03:52.436Z,34.10
2019-06-26T17:06:56.333Z,34.00
2019-06-26T17:10:00.066Z,33.90
2019-06-26T17:13:03.844Z,33.70
2019-06-26T17:16:07.844Z,33.60
2019-06-26T17:19:11.671Z,33.40
2019-06-26T17:22:15.409Z,33.30
2019-06-26T17:25:20.405Z,33.10
2019-06-26T17:28:24.137Z,33.00
2019-06-26T17:31:28.614Z,32.90
2019-06-26T17:34:32.322Z,32.80
2019-06-26T17:37:36.162Z,32.80
2019-06-26T17:40:40.752Z,32.70
2019-06-26T17:43:44.702Z,32.60
2019-06-26T17:46:48.655Z,32.50
2019-06-26T17:49:52.528Z,32.40
2019-06-26T17:52:56.438Z,32.40
2019-06-26T17:56:00.964Z,32.20
2019-06-26T17:59:05.629Z,32.00
2019-06-26T18:02:09.451Z,32.00
2019-06-26T18:05:13.290Z,31.90
2019-06-26T18:08:17.094Z,31.80
2019-06-26T18:11:20.805Z,31.80
2019-06-26T18:14:24.494Z,31.60
2019-06-26T18:17:28.308Z,31.60
2019-06-26T18:20:32.105Z,31.40
2019-06-26T18:23:38.466Z,31.40
2019-06-26T18:26:41.611Z,31.30
2019-06-26T18:29:45.325Z,31.20
2019-06-26T18:32:49.114Z,31.10
2019-06-26T18:35:52.801Z,31.00
2019-06-26T18:38:56.485Z,30.80
2019-06-26T18:42:00.334Z,30.70
2019-06-26T18:45:04.418Z,30.70
2019-06-26T18:48:08.330Z,30.60
2019-06-26T18:51:12.046Z,30.50
2019-06-26T18:54:15.738Z,30.40
2019-06-26T18:57:19.557Z,30.30
2019-06-26T19:00:23.315Z,30.30
2019-06-26T19:03:27.091Z,30.20
2019-06-26T19:06:30.829Z,30.10
2019-06-26T19:09:34.542Z,30.10
2019-06-26T19:12:38.417Z,30.00
2019-06-26T19:15:42.182Z,29.90
2019-06-26T19:18:45.905Z,29.70
2019-06-26T19:21:49.615Z,29.70
2019-06-26T19:24:53.302Z,29.50
2019-06-26T19:27:57.079Z,29.40
2019-06-26T19:31:00.879Z,29.30
2019-06-26T19:34:04.609Z,29.20
2019-06-26T19:37:08.322Z,29.10
2019-06-26T19:40:12.252Z,29.00
2019-06-26T19:43:15.987Z,29.00
2019-06-26T19:46:20.074Z,28.90
2019-06-26T19:49:24.502Z,28.80
2019-06-26T19:52:31.999Z,28.70
2019-06-26T19:55:33.913Z,28.60
2019-06-26T19:58:37.601Z,28.50
2019-06-26T20:01:41.313Z,28.50
2019-06-26T20:04:48.063Z,28.30
2019-06-26T20:07:50.910Z,28.30
2019-06-26T20:10:54.696Z,28.20
2019-06-26T20:13:58.442Z,28.10
2019-06-26T20:17:02.175Z,28.10
2019-06-26T20:20:06.318Z,28.00
2019-06-26T20:23:10.030Z,27.90
2019-06-26T20:26:13.866Z,27.80
2019-06-26T20:29:17.582Z,27.70
2019-06-26T20:32:21.357Z,27.70
2019-06-26T20:35:25.311Z,27.60
2019-06-26T20:38:29.515Z,27.50
2019-06-26T20:41:33.208Z,27.50
2019-06-26T20:44:36.966Z,27.40
2019-06-26T20:47:40.718Z,27.30
2019-06-26T20:50:44.422Z,27.20
2019-06-26T20:53:48.197Z,27.10
2019-06-26T20:56:51.963Z,27.10
2019-06-26T20:59:55.676Z,27.00
2019-06-26T21:02:59.378Z,26.90
2019-06-26T21:06:03.149Z,26.80
2019-06-26T21:09:07.071Z,26.80
2019-06-26T21:12:11.091Z,26.70
2019-06-26T21:15:16.005Z,26.70
2019-06-26T21:18:19.930Z,26.50
2019-06-26T21:21:23.694Z,26.40
2019-06-26T21:24:27.395Z,26.40
2019-06-26T21:27:32.436Z,26.30
2019-06-26T21:30:36.413Z,26.30
2019-06-26T21:33:40.377Z,26.20
2019-06-26T21:36:44.162Z,26.10
2019-06-26T21:39:47.846Z,26.00
2019-06-26T21:42:51.528Z,25.90
2019-06-26T21:45:55.487Z,25.90
2019-06-26T21:48:59.324Z,25.80
2019-06-26T21:52:03.035Z,25.80
2019-06-26T21:55:07.282Z,25.70
2019-06-26T21:58:11.063Z,25.60
2019-06-26T22:01:14.947Z,25.60
2019-06-26T22:04:18.676Z,25.50
2019-06-26T22:07:22.862Z,25.40
2019-06-26T22:10:27.733Z,25.40
2019-06-26T22:13:31.614Z,25.30
2019-06-26T22:16:35.368Z,25.20
2019-06-26T22:19:39.053Z,25.10
2019-06-26T22:22:42.717Z,25.10
2019-06-26T22:25:50.701Z,25.00
2019-06-26T22:28:51.838Z,24.90
2019-06-26T22:31:55.562Z,24.80
2019-06-26T22:34:59.368Z,24.80
2019-06-26T22:38:03.111Z,24.60
2019-06-26T22:41:06.874Z,24.50
2019-06-26T22:44:10.588Z,24.40
2019-06-26T22:47:14.357Z,24.40
2019-06-26T22:50:18.353Z,24.30
2019-06-26T22:53:22.560Z,24.20
2019-06-26T22:56:27.118Z,24.10
2019-06-26T22:59:31.609Z,24.00
2019-06-26T23:02:35.257Z,24.00
2019-06-26T23:05:38.970Z,23.90
2019-06-26T23:08:43.133Z,23.80
2019-06-26T23:11:47.043Z,23.70
2019-06-26T23:14:50.713Z,23.60
2019-06-26T23:17:54.470Z,23.50
2019-06-26T23:20:58.153Z,23.40
2019-06-26T23:24:01.822Z,23.40
2019-06-26T23:27:05.626Z,23.30
2019-06-26T23:30:16.166Z,23.20
2019-06-26T23:33:20.549Z,23.10
2019-06-26T23:36:24.274Z,23.00
2019-06-26T23:39:27.941Z,22.90
2019-06-26T23:42:31.663Z,22.80
2019-06-26T23:45:35.424Z,22.70
2019-06-26T23:48:39.116Z,22.60
2019-06-26T23:51:42.832Z,22.40
2019-06-26T23:54:46.514Z,22.40
2019-06-26T23:57:59.064Z,22.20
